createdAt,value
2022-12-11T08:15:54.899Z,1.61
2022-12-11T08:18:33.239Z,1.64
2022-12-11T08:21:11.560Z,1.68
2022-12-11T08:23:49.970Z,1.70
2022-12-11T08:26:29.566Z,1.73
2022-12-11T08:29:08.209Z,1.75
2022-12-11T08:31:48.421Z,1.79
2022-12-11T08:34:26.200Z,1.82
2022-12-11T08:37:03.190Z,1.82
2022-12-11T08:39:40.659Z,1.85
2022-12-11T08:42:17.778Z,1.88
2022-12-11T08:44:55.428Z,1.89
2022-12-11T08:47:35.369Z,1.89
2022-12-11T08:50:13.674Z,1.88
2022-12-11T08:52:50.808Z,1.87
2022-12-11T08:55:29.091Z,1.87
2022-12-11T08:58:06.601Z,1.88
2022-12-11T09:00:45.461Z,1.86
2022-12-11T09:03:25.539Z,1.82
2022-12-11T09:06:03.605Z,1.80
2022-12-11T09:08:44.938Z,1.77
2022-12-11T09:11:30.156Z,1.79
2022-12-11T09:14:08.411Z,1.75
2022-12-11T09:16:47.281Z,1.72
2022-12-11T09:19:32.073Z,1.73
2022-12-11T09:22:13.592Z,1.71
2022-12-11T09:24:51.217Z,1.66
2022-12-11T09:27:29.766Z,1.64
2022-12-11T09:30:09.132Z,1.63
2022-12-11T09:32:48.033Z,1.60
2022-12-11T09:35:28.081Z,1.59
2022-12-11T09:38:06.459Z,1.57
2022-12-11T09:40:48.107Z,1.55
2022-12-11T09:43:45.663Z,1.50
2022-12-11T09:46:24.837Z,1.45
2022-12-11T09:49:05.170Z,1.43
2022-12-11T09:51:50.517Z,1.40
2022-12-11T09:54:29.262Z,1.37
2022-12-11T09:57:18.600Z,1.39
2022-12-11T10:00:16.012Z,1.40
2022-12-11T10:03:52.582Z,1.40
2022-12-11T10:06:35.252Z,1.35
2022-12-11T10:09:24.690Z,1.41
2022-12-11T10:12:18.875Z,1.38
2022-12-11T10:15:23.910Z,1.38
2022-12-11T10:18:05.305Z,1.36
2022-12-11T10:20:45.547Z,1.34
2022-12-11T10:23:29.053Z,1.36
2022-12-11T10:26:15.902Z,1.37
2022-12-11T10:28:54.914Z,1.39
2022-12-11T10:31:45.634Z,1.40
2022-12-11T10:34:36.654Z,1.41
2022-12-11T10:37:15.004Z,1.39
2022-12-11T10:39:52.630Z,1.40
2022-12-11T10:42:32.613Z,1.41
2022-12-11T10:45:12.450Z,1.42
2022-12-11T10:47:52.064Z,1.39
2022-12-11T10:50:30.147Z,1.42
2022-12-11T10:53:07.211Z,1.42
2022-12-11T10:55:50.512Z,1.46
2022-12-11T10:58:34.629Z,1.44
2022-12-11T11:01:17.504Z,1.49
2022-12-11T11:04:03.448Z,1.50
2022-12-11T11:06:47.502Z,1.52
2022-12-11T11:09:37.583Z,1.56
2022-12-11T11:12:31.896Z,1.61
2022-12-11T11:15:16.791Z,1.60
2022-12-11T11:18:00.017Z,1.61
2022-12-11T11:20:39.655Z,1.65
2022-12-11T11:23:19.745Z,1.66
2022-12-11T11:25:58.934Z,1.69
2022-12-11T11:28:41.925Z,1.71
2022-12-11T11:31:23.500Z,1.72
2022-12-11T11:34:04.498Z,1.72
2022-12-11T11:36:41.874Z,1.75
2022-12-11T11:39:29.710Z,1.75
2022-12-11T11:42:13.967Z,1.76
2022-12-11T11:45:13.727Z,1.77
2022-12-11T11:48:11.053Z,1.79
2022-12-11T11:50:52.425Z,1.81
2022-12-11T11:53:37.778Z,1.85
2022-12-11T11:56:24.832Z,1.85
2022-12-11T11:59:15.757Z,1.87
2022-12-11T12:01:53.988Z,1.89
2022-12-11T12:04:37.935Z,1.89
2022-12-11T12:07:35.572Z,1.91
2022-12-11T12:10:23.987Z,1.94
2022-12-11T12:13:30.164Z,1.93
2022-12-11T12:16:29.271Z,1.94
2022-12-11T12:19:17.104Z,1.94
2022-12-11T12:21:57.217Z,1.93
2022-12-11T12:24:53.076Z,1.92
2022-12-11T12:27:57.056Z,1.92
2022-12-11T12:30:46.509Z,1.92
2022-12-11T12:33:35.956Z,1.90
2022-12-11T12:36:25.274Z,1.88
2022-12-11T12:39:14.527Z,1.91
2022-12-11T12:42:07.040Z,1.92
2022-12-11T12:45:01.338Z,1.91
2022-12-11T12:47:39.227Z,1.89
2022-12-11T12:50:22.388Z,1.89
2022-12-11T12:53:00.758Z,1.88
2022-12-11T12:55:41.227Z,1.86
2022-12-11T12:58:45.227Z,1.89
2022-12-11T13:01:26.282Z,1.84
2022-12-11T13:04:20.730Z,1.87
2022-12-11T13:07:19.545Z,1.82
2022-12-11T13:10:10.628Z,1.83
2022-12-11T13:12:51.294Z,1.81
2022-12-11T13:15:59.037Z,1.80
2022-12-11T13:18:48.980Z,1.79
2022-12-11T13:21:42.356Z,1.75
2022-12-11T13:24:29.827Z,1.75
2022-12-11T13:27:15.154Z,1.77
2022-12-11T13:29:55.677Z,1.77
2022-12-11T13:32:35.827Z,1.75
2022-12-11T13:35:21.027Z,1.75
2022-12-11T13:38:04.703Z,1.73
2022-12-11T13:40:45.595Z,1.69
2022-12-11T13:43:27.521Z,1.68
2022-12-11T13:46:12.771Z,1.68
2022-12-11T13:48:55.757Z,1.60
2022-12-11T13:51:37.448Z,1.57
2022-12-11T13:54:21.517Z,1.55
2022-12-11T13:57:06.281Z,1.58
2022-12-11T14:00:01.342Z,1.57
2022-12-11T14:02:44.070Z,1.54
2022-12-11T14:05:41.308Z,1.51
2022-12-11T14:08:30.833Z,1.55
2022-12-11T14:11:09.361Z,1.52
2022-12-11T14:13:46.337Z,1.51
2022-12-11T14:16:27.198Z,1.53
2022-12-11T14:19:11.320Z,1.52
2022-12-11T14:22:04.811Z,1.50
2022-12-11T14:24:54.352Z,1.50
2022-12-11T14:27:33.028Z,1.52
2022-12-11T14:30:16.037Z,1.51
2022-12-11T14:32:56.622Z,1.48
2022-12-11T14:35:44.397Z,1.50
2022-12-11T14:38:28.153Z,1.47
2022-12-11T14:41:16.519Z,1.51
2022-12-11T14:44:00.398Z,1.50
2022-12-11T14:46:47.117Z,1.50
2022-12-11T14:49:32.750Z,1.52
2022-12-11T14:52:23.737Z,1.54
2022-12-11T14:55:10.949Z,1.53
2022-12-11T14:57:52.813Z,1.53
2022-12-11T15:00:45.496Z,1.51
2022-12-11T15:03:42.201Z,1.47
2022-12-11T15:06:36.719Z,1.50
2022-12-11T15:09:29.119Z,1.52
2022-12-11T15:12:22.188Z,1.49
2022-12-11T15:15:07.538Z,1.52
2022-12-11T15:17:55.768Z,1.51
2022-12-11T15:20:43.597Z,1.52
2022-12-11T15:23:34.831Z,1.52
2022-12-11T15:26:18.879Z,1.54
2022-12-11T15:29:32.356Z,1.56
2022-12-11T15:32:31.378Z,1.58
2022-12-11T15:35:34.708Z,1.59
2022-12-11T15:38:44.937Z,1.57
2022-12-11T15:41:36.321Z,1.55
2022-12-11T15:44:28.407Z,1.62
2022-12-11T15:47:37.339Z,1.66
2022-12-11T15:50:25.871Z,1.65
2022-12-11T15:53:04.049Z,1.65
2022-12-11T15:55:42.556Z,1.64
2022-12-11T15:58:27.695Z,1.64
2022-12-11T16:01:06.173Z,1.64
2022-12-11T16:03:46.259Z,1.64
2022-12-11T16:06:24.131Z,1.66
2022-12-11T16:09:04.466Z,1.67
2022-12-11T16:11:44.927Z,1.68
2022-12-11T16:14:26.977Z,1.73
2022-12-11T16:17:04.854Z,1.71
2022-12-11T16:19:45.480Z,1.75
2022-12-11T16:22:25.654Z,1.77
2022-12-11T16:25:03.388Z,1.76
2022-12-11T16:27:42.106Z,1.77
2022-12-11T16:30:25.169Z,1.80
2022-12-11T16:33:11.762Z,1.79
2022-12-11T16:35:51.347Z,1.82
2022-12-11T16:38:28.535Z,1.82
2022-12-11T16:41:07.497Z,1.82
2022-12-11T16:43:46.777Z,1.83
2022-12-11T16:46:28.317Z,1.87
2022-12-11T16:49:06.165Z,1.86
2022-12-11T16:51:45.306Z,1.87
2022-12-11T16:54:23.946Z,1.87
2022-12-11T16:57:01.800Z,1.90
2022-12-11T16:59:39.584Z,1.95
2022-12-11T17:02:21.775Z,1.94
2022-12-11T17:04:59.075Z,1.97
2022-12-11T17:07:38.015Z,2.00
2022-12-11T17:10:15.848Z,2.01
2022-12-11T17:12:53.446Z,2.06
2022-12-11T17:15:30.982Z,2.07
2022-12-11T17:18:12.077Z,2.06
2022-12-11T17:20:50.127Z,2.09
2022-12-11T17:23:30.446Z,2.08
2022-12-11T17:26:10.538Z,2.13
2022-12-11T17:28:52.903Z,2.12
2022-12-11T17:31:31.714Z,2.12
2022-12-11T17:34:13.977Z,2.16
2022-12-11T17:36:56.758Z,2.17
2022-12-11T17:39:35.793Z,2.16
2022-12-11T17:42:19.786Z,2.17
2022-12-11T17:44:58.785Z,2.15
2022-12-11T17:47:36.813Z,2.14
2022-12-11T17:50:20.295Z,2.15
2022-12-11T17:52:58.865Z,2.18
2022-12-11T17:55:50.155Z,2.17
2022-12-11T17:58:32.797Z,2.19
2022-12-11T18:01:16.255Z,2.21
2022-12-11T18:03:55.049Z,2.22
2022-12-11T18:06:36.548Z,2.18
2022-12-11T18:09:14.924Z,2.18
2022-12-11T18:11:53.685Z,2.20
2022-12-11T18:14:31.900Z,2.19
2022-12-11T18:17:13.054Z,2.20
2022-12-11T18:19:54.618Z,2.19
2022-12-11T18:22:39.367Z,2.23
2022-12-11T18:25:19.814Z,2.23
2022-12-11T18:28:00.505Z,2.22
2022-12-11T18:30:41.795Z,2.21
2022-12-11T18:33:22.497Z,2.18
2022-12-11T18:36:04.121Z,2.21
2022-12-11T18:38:47.477Z,2.21
2022-12-11T18:41:26.395Z,2.17
2022-12-11T18:44:09.691Z,2.24
2022-12-11T18:46:49.211Z,2.26
2022-12-11T18:49:28.217Z,2.22
2022-12-11T18:52:09.986Z,2.25
2022-12-11T18:54:57.639Z,2.26
2022-12-11T18:57:38.435Z,2.28
2022-12-11T19:00:23.118Z,2.28
2022-12-11T19:03:04.284Z,2.31
2022-12-11T19:05:46.045Z,2.27
2022-12-11T19:08:25.027Z,2.30
2022-12-11T19:11:08.563Z,2.33
2022-12-11T19:13:52.458Z,2.31
2022-12-11T19:16:37.233Z,2.33
2022-12-11T19:19:25.085Z,2.34
2022-12-11T19:22:06.617Z,2.30
2022-12-11T19:24:49.139Z,2.29
2022-12-11T19:27:32.717Z,2.31
2022-12-11T19:30:15.178Z,2.33
2022-12-11T19:33:02.694Z,2.34
2022-12-11T19:35:42.557Z,2.33
2022-12-11T19:38:24.054Z,2.32
2022-12-11T19:41:04.574Z,2.31
2022-12-11T19:43:50.803Z,2.35
2022-12-11T19:46:31.566Z,2.36
2022-12-11T19:49:14.990Z,2.37
2022-12-11T19:51:53.536Z,2.38
2022-12-11T19:54:40.788Z,2.34
2022-12-11T19:57:24.915Z,2.39
2022-12-11T20:00:09.663Z,2.35
2022-12-11T20:02:54.299Z,2.35
2022-12-11T20:05:41.014Z,2.35
2022-12-11T20:11:25.152Z,2.39
2022-12-11T20:14:05.987Z,2.39
2022-12-11T20:19:53.198Z,2.39
2022-12-11T20:22:32.269Z,2.44
2022-12-11T20:25:15.376Z,2.42
2022-12-11T20:28:05.432Z,2.43
2022-12-11T20:30:50.971Z,2.41
2022-12-11T20:33:38.440Z,2.39
2022-12-11T20:36:29.168Z,2.37
2022-12-11T20:39:10.529Z,2.37
2022-12-11T20:41:50.289Z,2.38
2022-12-11T20:44:30.030Z,2.40
2022-12-11T20:47:10.989Z,2.39
2022-12-11T20:49:56.248Z,2.40
2022-12-11T20:52:35.444Z,2.39
2022-12-11T20:55:19.439Z,2.39
2022-12-11T20:58:02.752Z,2.39
2022-12-11T21:00:44.601Z,2.41
2022-12-11T21:03:29.391Z,2.41
2022-12-11T21:06:14.500Z,2.44
2022-12-11T21:08:53.963Z,2.43
2022-12-11T21:11:37.429Z,2.42
2022-12-11T21:14:17.308Z,2.44
2022-12-11T21:16:56.110Z,2.44
2022-12-11T21:19:35.022Z,2.41
2022-12-11T21:22:17.306Z,2.41
2022-12-11T21:24:55.211Z,2.41
2022-12-11T21:27:34.924Z,2.46
2022-12-11T21:30:13.502Z,2.45
2022-12-11T21:33:02.603Z,2.43
2022-12-11T21:35:44.961Z,2.45
2022-12-11T21:38:25.911Z,2.46
2022-12-11T21:41:11.801Z,2.45
2022-12-11T21:45:03.416Z,2.44
2022-12-11T21:46:52.020Z,2.45
2022-12-11T21:49:30.463Z,2.49
2022-12-11T21:52:10.483Z,2.45
2022-12-11T21:54:50.930Z,2.43
2022-12-11T21:57:28.621Z,2.39
2022-12-11T22:00:08.153Z,2.41
2022-12-11T22:02:50.419Z,2.40
2022-12-11T22:05:31.682Z,2.43
2022-12-11T22:08:14.100Z,2.42
2022-12-11T22:10:56.572Z,2.45
2022-12-11T22:13:34.111Z,2.45
2022-12-11T22:16:13.598Z,2.45
2022-12-11T22:18:51.160Z,2.42
